createdAt,value
2016-09-15T00:03:45.814Z,24.74
2016-09-15T00:08:43.057Z,24.74
2016-09-15T00:13:39.684Z,24.73
2016-09-15T00:18:36.762Z,24.63
2016-09-15T00:23:33.300Z,24.58
2016-09-15T00:28:30.048Z,24.51
2016-09-15T00:33:26.637Z,24.55
2016-09-15T00:38:23.224Z,24.54
2016-09-15T00:43:20.094Z,24.57
2016-09-15T00:48:16.754Z,24.40
2016-09-15T00:53:13.364Z,24.45
2016-09-15T00:58:10.084Z,24.51
2016-09-15T01:03:06.583Z,24.47
2016-09-15T01:08:03.283Z,24.42
2016-09-15T01:13:00.050Z,24.43
2016-09-15T01:17:56.819Z,24.50
2016-09-15T01:22:53.611Z,24.39
2016-09-15T01:27:50.180Z,24.36
2016-09-15T01:32:46.749Z,24.26
2016-09-15T01:37:45.748Z,24.23
2016-09-15T01:42:41.931Z,24.28
2016-09-15T01:47:38.625Z,24.21
2016-09-15T01:52:35.274Z,24.26
2016-09-15T01:57:31.928Z,24.18
2016-09-15T02:02:31.160Z,24.20
2016-09-15T02:07:27.163Z,24.14
2016-09-15T02:12:23.775Z,24.16
2016-09-15T02:17:20.862Z,23.98
2016-09-15T02:22:17.624Z,24.01
2016-09-15T02:27:14.205Z,23.99
2016-09-15T02:32:10.784Z,23.95
2016-09-15T02:37:07.706Z,23.99
2016-09-15T02:42:04.388Z,24.02
2016-09-15T02:47:00.862Z,23.92
2016-09-15T02:51:57.940Z,23.92
2016-09-15T02:56:54.666Z,24.08
2016-09-15T03:01:51.307Z,23.99
2016-09-15T03:06:47.899Z,23.87
2016-09-15T03:11:44.742Z,24.11
2016-09-15T03:16:41.202Z,23.98
2016-09-15T03:21:37.955Z,23.95
2016-09-15T03:26:34.153Z,23.99
2016-09-15T03:31:31.249Z,23.86
2016-09-15T03:36:29.067Z,23.92
2016-09-15T03:41:25.377Z,23.87
2016-09-15T03:46:22.102Z,23.92
2016-09-15T03:51:18.739Z,23.86
2016-09-15T03:56:15.353Z,23.78
2016-09-15T04:01:11.907Z,23.66
2016-09-15T04:06:08.543Z,23.74
2016-09-15T04:11:05.064Z,23.71
2016-09-15T04:16:01.547Z,23.74
2016-09-15T04:20:58.109Z,23.68
2016-09-15T04:25:54.677Z,23.58
2016-09-15T04:30:51.070Z,23.63
2016-09-15T04:35:47.904Z,23.62
2016-09-15T04:40:44.599Z,23.61
2016-09-15T04:45:41.137Z,23.50
2016-09-15T04:50:38.171Z,23.36
2016-09-15T04:55:34.920Z,23.48
2016-09-15T05:00:31.329Z,23.44
2016-09-15T05:05:28.095Z,23.37
2016-09-15T05:10:25.004Z,23.25
2016-09-15T05:15:21.618Z,23.32
2016-09-15T05:25:18.670Z,23.32
2016-09-15T05:30:15.346Z,23.44
2016-09-15T05:35:12.305Z,23.32
2016-09-15T05:40:08.984Z,23.44
2016-09-15T05:45:05.698Z,23.44
2016-09-15T05:50:02.646Z,23.46
2016-09-15T05:54:59.258Z,23.37
2016-09-15T05:59:55.957Z,23.59
2016-09-15T06:04:52.517Z,23.66
2016-09-15T06:09:49.331Z,23.74
2016-09-15T06:14:46.300Z,23.83
2016-09-15T06:19:43.015Z,23.91
2016-09-15T06:24:39.806Z,24.01
2016-09-15T06:29:36.661Z,24.08
2016-09-15T06:34:34.566Z,24.23
2016-09-15T06:39:31.028Z,24.23
2016-09-15T06:44:27.656Z,24.76
2016-09-15T06:49:24.301Z,24.48
2016-09-15T06:54:20.806Z,24.53
2016-09-15T06:59:17.549Z,24.68
2016-09-15T07:04:14.393Z,24.50
2016-09-15T07:09:11.010Z,24.57
2016-09-15T07:14:07.749Z,24.69
2016-09-15T07:19:04.327Z,24.69
2016-09-15T07:24:01.037Z,24.65
2016-09-15T07:28:58.056Z,24.84
2016-09-15T07:33:55.079Z,24.84
2016-09-15T07:38:51.815Z,24.92
2016-09-15T07:43:48.405Z,24.86
2016-09-15T07:48:45.200Z,25.06
2016-09-15T07:53:43.104Z,25.16
2016-09-15T07:58:39.498Z,25.33
2016-09-15T08:03:36.303Z,25.66
2016-09-15T08:08:33.400Z,26.40
2016-09-15T08:13:30.411Z,27.21
2016-09-15T08:18:27.324Z,27.39
2016-09-15T08:23:24.234Z,27.39
2016-09-15T08:28:21.235Z,27.11
2016-09-15T08:33:18.239Z,27.07
2016-09-15T08:38:15.119Z,27.17
2016-09-15T08:43:12.030Z,27.17
2016-09-15T08:48:08.950Z,27.26
2016-09-15T08:53:05.703Z,27.20
2016-09-15T08:58:02.441Z,27.21
2016-09-15T09:02:58.827Z,27.07
2016-09-15T09:07:55.428Z,26.92
2016-09-15T09:12:51.776Z,26.78
2016-09-15T09:17:48.308Z,26.68
2016-09-15T09:22:44.853Z,26.59
2016-09-15T09:27:41.573Z,26.63
2016-09-15T09:32:38.275Z,26.52
2016-09-15T09:37:37.318Z,26.45
2016-09-15T09:42:33.310Z,26.33
2016-09-15T09:47:32.416Z,26.22
2016-09-15T09:52:28.544Z,26.29
2016-09-15T09:57:25.318Z,26.37
2016-09-15T10:02:22.150Z,26.34
2016-09-15T10:07:18.743Z,26.36
2016-09-15T10:12:15.378Z,26.31
2016-09-15T10:17:12.034Z,26.37
2016-09-15T10:22:08.809Z,26.36
2016-09-15T10:27:05.730Z,26.44
2016-09-15T10:32:02.493Z,26.45
2016-09-15T10:36:59.177Z,26.51
2016-09-15T10:41:55.850Z,26.45
2016-09-15T10:46:52.412Z,26.44
2016-09-15T10:51:49.191Z,26.47
2016-09-15T10:56:46.983Z,26.44
2016-09-15T11:01:43.443Z,26.55
2016-09-15T11:06:40.311Z,26.60
2016-09-15T11:11:40.009Z,26.66
2016-09-15T11:16:36.569Z,26.56
2016-09-15T11:21:33.200Z,26.65
2016-09-15T11:26:29.854Z,26.68
2016-09-15T11:31:26.917Z,26.65
2016-09-15T11:36:23.530Z,26.68
2016-09-15T11:41:20.309Z,26.74
2016-09-15T11:46:16.970Z,26.71
2016-09-15T11:51:13.736Z,26.85
2016-09-15T11:56:10.369Z,26.75
2016-09-15T12:01:06.925Z,26.80
2016-09-15T12:06:03.645Z,26.81
2016-09-15T12:11:00.373Z,26.85
2016-09-15T12:15:57.215Z,26.92
2016-09-15T12:20:54.365Z,26.85
2016-09-15T12:25:50.996Z,26.97
2016-09-15T12:30:48.234Z,26.85
2016-09-15T12:35:44.924Z,27.00
2016-09-15T12:40:41.681Z,26.85
2016-09-15T12:45:38.379Z,26.89
2016-09-15T12:50:34.960Z,26.92
2016-09-15T12:55:31.732Z,26.97
2016-09-15T13:00:28.678Z,26.99
2016-09-15T13:05:25.390Z,27.07
2016-09-15T13:10:24.524Z,27.03
2016-09-15T13:15:20.714Z,27.02
2016-09-15T13:20:17.382Z,26.97
2016-09-15T13:25:13.807Z,26.99
2016-09-15T13:30:10.389Z,27.10
2016-09-15T13:35:07.168Z,27.12
2016-09-15T13:40:04.385Z,27.05
2016-09-15T13:45:00.995Z,27.17
2016-09-15T13:49:57.587Z,27.11
2016-09-15T13:54:54.276Z,27.08
2016-09-15T13:59:51.435Z,26.99
2016-09-15T14:04:48.158Z,27.05
2016-09-15T14:09:50.828Z,26.99
2016-09-15T14:14:46.381Z,26.96
2016-09-15T14:19:45.604Z,27.03
2016-09-15T14:24:42.314Z,27.00
2016-09-15T14:29:39.094Z,27.17
2016-09-15T14:34:35.992Z,27.11
2016-09-15T14:39:32.720Z,27.02
2016-09-15T14:44:29.629Z,27.11
2016-09-15T14:49:26.546Z,27.02
2016-09-15T14:54:23.178Z,27.02
2016-09-15T14:59:19.747Z,27.03
2016-09-15T15:04:16.427Z,26.99
2016-09-15T15:09:13.112Z,27.02
2016-09-15T15:14:09.808Z,27.07
2016-09-15T15:19:06.689Z,27.03
2016-09-15T15:24:03.576Z,27.02
2016-09-15T15:29:00.199Z,27.00
2016-09-15T15:33:56.836Z,27.03
2016-09-15T15:38:53.526Z,27.00
2016-09-15T15:43:52.670Z,27.00
2016-09-15T15:48:48.774Z,27.00
2016-09-15T15:53:45.972Z,26.90
2016-09-15T15:58:42.804Z,26.93
2016-09-15T16:03:39.420Z,26.90
2016-09-15T16:08:37.590Z,26.84
2016-09-15T16:13:33.854Z,26.90
2016-09-15T16:18:30.447Z,26.90
2016-09-15T16:23:27.103Z,26.89
2016-09-15T16:28:23.749Z,26.84
2016-09-15T16:33:20.552Z,26.78
2016-09-15T16:38:17.317Z,26.88
2016-09-15T16:43:13.997Z,26.73
2016-09-15T16:48:10.874Z,26.68
2016-09-15T16:53:07.442Z,26.63
2016-09-15T16:58:04.116Z,26.55
2016-09-15T17:03:01.211Z,26.62
2016-09-15T17:07:58.007Z,26.74
2016-09-15T17:12:54.725Z,26.90
2016-09-15T17:17:51.366Z,26.93
2016-09-15T17:22:48.088Z,27.07
2016-09-15T17:27:45.128Z,27.20
2016-09-15T17:32:41.558Z,27.12
2016-09-15T17:37:38.396Z,27.07
2016-09-15T17:42:35.122Z,27.05
2016-09-15T17:47:31.817Z,26.81
2016-09-15T17:52:30.812Z,26.59
2016-09-15T17:57:26.829Z,26.53
2016-09-15T18:02:23.576Z,26.31
2016-09-15T18:07:20.166Z,26.28
2016-09-15T18:12:17.099Z,26.09
2016-09-15T18:17:13.689Z,26.10
2016-09-15T18:22:10.376Z,25.99
2016-09-15T18:27:07.023Z,26.00
2016-09-15T18:32:04.520Z,25.80
2016-09-15T18:37:01.232Z,25.78
2016-09-15T18:41:57.853Z,25.69
2016-09-15T18:46:54.460Z,25.69
2016-09-15T18:51:51.055Z,25.72
2016-09-15T18:56:47.615Z,25.58
2016-09-15T19:01:44.136Z,25.54
2016-09-15T19:06:40.739Z,25.65
2016-09-15T19:11:37.188Z,25.55
2016-09-15T19:16:34.185Z,25.53
2016-09-15T19:21:30.980Z,25.38
2016-09-15T19:26:27.680Z,25.38
2016-09-15T19:31:24.396Z,25.41
2016-09-15T19:36:21.088Z,25.38
2016-09-15T19:41:17.754Z,25.35
2016-09-15T19:46:14.697Z,25.29
2016-09-15T19:51:11.318Z,25.21
2016-09-15T19:56:07.747Z,25.29
2016-09-15T20:01:04.400Z,25.31
2016-09-15T20:06:01.032Z,25.32
2016-09-15T20:10:57.546Z,25.33
2016-09-15T20:15:54.417Z,25.33
2016-09-15T20:20:51.068Z,25.26
2016-09-15T20:25:47.790Z,25.31
2016-09-15T20:30:44.493Z,25.28
2016-09-15T20:35:41.098Z,25.28
2016-09-15T20:40:37.982Z,25.33
2016-09-15T20:45:34.517Z,25.31
2016-09-15T20:50:31.264Z,25.28
2016-09-15T20:55:30.487Z,25.32
2016-09-15T21:00:26.634Z,25.28
2016-09-15T21:05:23.169Z,25.33
2016-09-15T21:10:19.839Z,25.29
2016-09-15T21:15:16.498Z,25.16
2016-09-15T21:20:13.639Z,25.14
2016-09-15T21:25:13.282Z,25.01
2016-09-15T21:30:09.580Z,24.98
2016-09-15T21:35:06.220Z,24.99
2016-09-15T21:40:03.112Z,25.03
2016-09-15T21:44:59.682Z,25.06
2016-09-15T21:49:56.570Z,25.01
2016-09-15T21:54:53.334Z,24.88
2016-09-15T21:59:49.855Z,24.85
2016-09-15T22:04:47.039Z,24.77
2016-09-15T22:09:44.166Z,24.74
2016-09-15T22:14:40.597Z,24.76
2016-09-15T22:19:37.065Z,24.69
2016-09-15T22:24:33.833Z,24.60
2016-09-15T22:29:30.406Z,24.45
2016-09-15T22:34:27.158Z,24.51
2016-09-15T22:39:23.724Z,24.36
2016-09-15T22:44:20.353Z,24.47
2016-09-15T22:49:17.147Z,24.38
2016-09-15T22:54:13.797Z,24.28
2016-09-15T22:59:10.384Z,24.21
2016-09-15T23:04:07.368Z,24.16
2016-09-15T23:09:03.978Z,24.01
2016-09-15T23:14:00.752Z,23.98
2016-09-15T23:18:57.480Z,23.98
2016-09-15T23:23:54.144Z,23.96
2016-09-15T23:28:51.307Z,24.08
2016-09-15T23:33:47.987Z,23.96
2016-09-15T23:38:44.574Z,24.05
2016-09-15T23:43:40.981Z,23.96
2016-09-15T23:48:37.628Z,23.87
2016-09-15T23:53:34.219Z,23.92
2016-09-15T23:58:32.137Z,23.86
